x

Tanner Bank - 121nm West Of San Diego, Ca (46047) Wave Buoy

4:50 - Tue 30th Sep 2014 All times are PDT. -7 hours from GMT.

  • Sig Wave height 6.2ft
  • Swell Direction
  • Peak Period 7s
  • Average Period 6s
  • Wind
    13mph, 16mph gusts
  • Sea Temp 69°f
  • Ar Temp 67°f
  • Sea Pressure 1011mb
  • Tanner Bank - 121nm West Of San Diego, Ca
  • Tanner Bank - 121nm West Of San Diego, Ca

More Historic Weather Station data

Upgrade to MSW Pro to gain access to the past 30 days of data for over 8000 Wavebouys and Weather Stations around the globe.

Join Pro

Comparision Forecast

View Surf forecast
   
Ter 09/30 4:50 6ft 7s 6s 13 16 mph 1011mb 69f 67f
3:50 6ft 7s 6s 13 18 mph 1011.3mb 69f 67f
2:50 6ft 7s 6s 13 18 mph 1011.7mb 69f 67f
1:50 6ft 6s 6s 18 20 mph 1011.8mb 69f 67f
12:50 6ft 6s 5s 18 22 mph 1012.1mb 69f 67f
Seg 09/29 11:50  -   -   -  20 22 mph 1012.5mb 69f 66f
10:50 6ft 6s 5s 18 22 mph 1012.5mb 69f 66f
9:50 6ft 6s 5s 18 22 mph 1012.6mb 69f 67f
8:50 5.5ft 9s 5s 20 25 mph 1012.3mb 69f 67f
7:50 5.5ft 8s 5s 20 25 mph 1011.9mb 69f 66f
6:50 5.5ft 8s 5s 22 27 mph 1011.6mb 69f 66f
5:50 5.5ft 10s 6s 20 25 mph 1011.8mb 69f 67f
4:50 6ft 10s 6s 18 22 mph 1012.2mb 69f 67f
3:50 5ft 9s 6s 18 20 mph 1012.5mb 69f 66f
2:50 5.5ft 10s 6s 18 20 mph 1012.6mb 69f 66f
1:50 5ft 9s 6s 16 18 mph 1013.3mb 69f 66f
12:50 5.5ft 10s 7s 13 18 mph 1014.1mb 69f 66f
11:50 5ft 10s 6s 13 16 mph 1014.6mb 68f 66f
10:50 5.5ft 10s 6s 13 16 mph 1014.6mb 68f 66f
9:50 5ft 9s 6s 16 20 mph 1014.4mb 68f 66f
8:50 5ft 10s 6s 16 18 mph 1014.2mb 68f 66f
7:50 5ft 10s 6s 13 18 mph 1014.1mb 68f 66f
6:50 5.5ft 11s 6s 16 18 mph 1013.5mb 68f 66f
5:50 5.5ft 11s 6s 18 20 mph 1013.1mb 68f 66f
4:50 5ft 10s 6s 18 20 mph 1013mb 68f 66f
3:50 5.5ft 10s 6s 18 20 mph 1013mb 68f 66f
2:50 5.5ft 10s 6s 16 20 mph 1013.1mb 69f 66f
1:50 6ft 10s 7s 16 18 mph 1013.8mb 69f 67f
12:50 6.5ft 11s 7s 16 18 mph 1013.3mb 69f 67f
Dom 09/28 11:50 6ft 9s 6s 16 18 mph 1013.5mb 69f 67f
10:50 7ft 11s 7s 16 18 mph 1013.8mb 69f 67f
9:50 6ft 9s 7s 18 20 mph 1013.7mb 69f 67f
8:50 6.5ft 11s 7s 16 20 mph 1013.5mb 69f 67f
7:50 6.5ft 11s 7s 16 20 mph 1013.2mb 69f 67f
6:50 6.5ft 8s 7s 16 20 mph 1013.1mb 69f 67f
5:50 6.5ft 10s 7s 11 16 mph 1013.3mb 69f 67f
4:50  -   -   -  13 16 mph 1013.3mb 69f 67f
3:50 7ft 9s 7s 13 16 mph 1013.3mb 69f 67f
2:50 7.5ft 11s 7s 11 16 mph 1013.4mb 69f 67f
1:50 7.5ft 10s 7s 13 18 mph 1014mb 69f 67f
12:50 7ft 8s 7s 13 16 mph 1014.5mb 69f 66f
11:50 7ft 8s 7s 11 13 mph 1014.6mb 69f 66f
10:50  -   -   -  18 20 mph 1014.2mb 69f 67f
9:50 7.5ft 8s 6s 18 20 mph 1014mb 69f 67f
8:50 7.5ft 12s 6s 20 25 mph 1013.4mb 69f 67f
7:50 7.5ft 8s 6s 20 25 mph 1013mb 69f 67f
6:50 8ft 8s 6s 18 22 mph 1012.6mb 69f 67f
5:50 8ft 8s 6s 20 22 mph 1012mb 69f 66f
4:50 8ft 8s 6s 20 25 mph 1011.6mb 69f 66f
3:50 8.5ft 8s 6s 22 27 mph 1011.3mb 69f 66f
2:50 9ft 8s 6s 22 29 mph 1011.8mb 69f 66f
1:50 9.5ft 8s 7s 20 27 mph 1011.8mb 69f 66f
12:50 9ft 8s 6s 20 25 mph 1012.1mb 69f 66f
Sáb 09/27 11:50 9.5ft 7s 7s 22 27 mph 1012mb 69f 67f
10:50  -   -   -  25 29 mph 1012.3mb 69f 67f
9:50 8.5ft 7s 6s 25 29 mph 1011.9mb 69f 67f
8:50 9ft 7s 6s 25 29 mph 1011.6mb 69f 67f
7:50 9ft 11s 6s 22 29 mph 1011.1mb 69f 67f
6:50 8.5ft 7s 6s 25 29 mph 1011mb 69f 67f
5:50  -   -   -  25 29 mph 1011.1mb 70f 67f
4:50 8.5ft 7s 6s 25 29 mph 1011.3mb 70f 67f
3:50 9ft 12s 6s 25 29 mph 1011.5mb 70f 67f
2:50  -   -   -  25 27 mph 1011.9mb 70f 67f
1:50  -   -   -  22 27 mph 1012.4mb 70f 67f
12:50  -   -   -  25 29 mph 1012.9mb 70f 67f
11:50  -   -   -  25 29 mph 1013.4mb 70f 67f
10:50 10ft 8s 6s 27 31 mph 1013.4mb 70f 67f
9:50 9ft 8s 6s 27 34 mph 1013.5mb 70f 67f
8:50 11ft 7s 6s 31 36 mph 1012.7mb 70f 67f
7:50 10ft 8s 6s 27 34 mph 1013mb 70f 67f
6:50 11ft 8s 7s 31 38 mph 1012.4mb 70f 67f
5:50 9.5ft 7s 6s 29 36 mph 1012.2mb 70f 67f
4:50 10ft 12s 7s 27 29 mph 1012.4mb 70f 67f
3:50 8ft 12s 6s 25 31 mph 1012.6mb 70f 67f
2:50 9ft 13s 7s 20 25 mph 1013mb 70f 67f
1:50 9ft 13s 7s 22 27 mph 1013.2mb 70f 67f
12:50  -   -   -  25 31 mph 1013.1mb 70f 67f
Sex 09/26 11:50 10ft 13s 7s 25 27 mph 1013.6mb 70f 67f
10:50 8ft 12s 7s 25 29 mph 1013.7mb 70f 67f
9:50 8ft 12s 7s 20 25 mph 1013.5mb 71f 68f
8:50 9ft 13s 7s 22 27 mph 1012.9mb 71f 68f
7:50 8ft 12s 6s 22 29 mph 1012.4mb 71f 68f
6:50 7.5ft 12s 6s 22 29 mph 1012mb 71f 67f
5:50 8.5ft 11s 6s 25 27 mph 1012mb 71f 68f
4:50 8ft 11s 6s 22 25 mph 1012.4mb 71f 68f
3:50 9ft 13s 7s 22 25 mph 1012.8mb 71f 68f
2:50 9ft 12s 6s 22 27 mph 1013mb 71f 68f
1:50  -   -   -  22 27 mph 1013.5mb 71f 68f
12:50 9.5ft 7s 7s 22 29 mph 1013.6mb 71f 68f